Tiempo atmosférico en la estación meteorológica de Candeleda, Ávila (350 m.)



Fecha
DESCASC
Temp. máxima en grados centígrados (hora)
DESCASC
Temp. mínima en grados centígrados (hora)
DESCASC
Temp. media en grados centígrados
DESCASC
Racha de viento máxima en m/sg (hora)
DESCASC
Velocidad máxima media en intervalos de 10 minutos(hora)
DESCASC
Precipitaciones diarias en mm
DESCASC
Precipitaciones de 00:00 a 06:00 en mm
DESCASC
Precipitaciones de 06:00 a 12:00 en mm
DESCASC
Precipitaciones de 12:00 a 18:00 en mm
DESCASC
Precipitaciones de 18:00 a 24:00 en mm
DESCASC
20-09-2020 24.3 (15:40) 15.9 (23:59) 20.1 8.06 (15:50) 4.44 (15:10) 1.4 0 1.4 0 0
19-09-2020 22.7 (16:20) 15.1 (00:00) 18.9 9.72 (23:00) 5.56 (13:10) 39.8 14.2 23.4 0.6 1.6
18-09-2020 24.2 (13:30) 15 (22:30) 19.6 15.83 (02:30) 6.39 (02:30) 57.2 18.4 8.2 1.8 28.8
17-09-2020 26.7 (12:40) 17.6 (00:00) 22.2 13.33 (21:30) 6.11 (19:50) 12.4 0 0 0.4 12
16-09-2020 33.5 (16:20) 14.9 (00:00) 24.2 6.11 (16:50) 3.06 (16:50) 0 0 0 0 0
15-09-2020 31.6 (18:20) 15.9 (00:00) 23.8 6.39 (17:20) 3.61 (17:20) 0 0 0 0 0
14-09-2020 35.1 (17:10) 19.4 (00:00) 27.2 18.89 (20:40) 10.83 (20:50) 0.4 0 0 0 0.4
13-09-2020 34.9 (15:50) 19.3 (00:00) 27.1 8.89 (14:20) 5.83 (15:30) 0 0 0 0 0
12-09-2020 36.9 (17:00) 15.8 (00:00) 26.4 7.22 (17:30) 3.33 (16:10) 0 0 0 0 0
11-09-2020 35.9 (17:50) 15.5 (00:00) 25.7 7.5 (16:40) 3.89 (16:40) 0 0 0 0 0
10-09-2020 34.9 (17:30) 13.8 (00:00) 24.4 6.11 (15:20) 3.06 (16:00) 0 0 0 0 0
09-09-2020 33.6 (16:50) 13.6 (00:00) 23.6 6.39 (15:10) 3.61 (15:10) 0 0 0 0 0
08-09-2020 30 (18:10) 14.9 (00:00) 22.4 11.39 (17:20) 5.83 (10:50) 0 0 0 0 0
07-09-2020 34.1 (18:10) 17.3 (08:30) 25.7 6.11 (19:40) 3.89 (19:50) 0 0 0 0 0
06-09-2020 37.1 (15:40) 17.8 (00:00) 27.4 6.67 (17:10) 3.33 (17:40) 0 0 0 0 0
05-09-2020 37.1 (18:10) 16 (00:00) 26.5 6.11 (15:30) 3.33 (22:20) 0 0 0 0 0
04-09-2020 37 (19:00) 17 (00:00) 27 8.89 (18:00) 3.89 (17:30) 0 0 0 0 0
03-09-2020 36.8 (17:40) 14.7 (00:00) 25.7 6.11 (15:50) 2.78 (15:20) 0 0 0 0 0
02-09-2020 34.1 (16:40) 13.1 (00:00) 23.6 6.67 (14:30) 3.89 (14:30) 0 0 0 0 0
01-09-2020 32.2 (16:00) 14.4 (00:00) 23.3 6.94 (15:00) 3.61 (16:10) 0 0 0 0 0
31-08-2020 30.4 (17:00) 10.9 (00:00) 20.6 6.39 (11:00) 3.89 (11:20) 0 0 0 0 0
30-08-2020 28.7 (19:00) 10.5 (00:00) 19.6 6.94 (15:00) 3.61 (17:10) 0 0 0 0 0
29-08-2020 28.3 (18:20) 14.8 (00:00) 21.5 12.5 (15:20) 6.94 (15:00) 0 0 0 0 0
28-08-2020 34.7 (15:50) 18.7 (00:00) 26.7 10.83 (16:30) 6.67 (21:30) 0 0 0 0 0
27-08-2020 39.3 (17:40) 16.5 (00:00) 27.9 8.33 (21:40) 4.17 (19:50) 0 0 0 0 0
26-08-2020 39.5 (17:30) 17.6 (00:00) 28.6 6.39 (14:40) 3.89 (16:10) 0 0 0 0 0
25-08-2020 38.7 (18:50) 17.5 (00:00) 28.1 8.33 (16:10) 5 (16:10) 0 0 0 0 0
24-08-2020 37.9 (19:00) 16.4 (00:00) 27.2 6.39 (13:10) 2.78 (18:40) 0 0 0 0 0
23-08-2020 38.1 (18:20) 15.8 (00:00) 26.9 5.56 (16:00) 2.78 (16:10) 0 0 0 0 0
22-08-2020 35.3 (17:40) 14.7 (00:00) 25 5.83 (15:20) 3.33 (16:30) 0 0 0 0 0

Gráficas

Temp. máximas Temp. mínimas Temp. medias Precipitaciones Rachas de viento máximas Velocidades máximas media en intervalos de 10 minutos

Datos horarios

Fecha y hora oficial Temperatura (ºC) Velocidad del viento (km/h) Dirección del viento Racha (km/h) Dirección de racha Precipitación (mm) Presión (hPa) Tendencia (hPa) Humedad (%)
2020-09-20 23:00:00 17.1 -- -- 6 Norte 0 -- -- 89
2020-09-20 22:00:00 17.5 -- -- 6 Norte 0 -- -- 89
2020-09-20 21:00:00 19.2 -- -- 9 Norte 0 -- -- 85
2020-09-20 20:00:00 21.3 -- -- 9 Norte 0 -- -- 77
2020-09-20 19:00:00 23.9 -- -- 12 Nordeste 0 -- -- 65
2020-09-20 18:00:00 23.1 -- -- 15 Nordeste 0 -- -- 68
2020-09-20 17:00:00 21.2 -- -- 28 Nordeste 0 -- -- 76
2020-09-20 16:00:00 23 -- -- 29 Este 0 -- -- 65
2020-09-20 15:00:00 23.3 -- -- 25 Nordeste 0 -- -- 65
2020-09-20 14:00:00 22 -- -- 21 Nordeste 0 -- -- 71
2020-09-20 13:00:00 20.4 -- -- 21 Nordeste 0 -- -- 83
2020-09-20 12:00:00 19.1 -- -- 27 Nordeste 0 -- -- 89
2020-09-20 11:00:00 18.3 -- -- 19 Nordeste 0 -- -- 96
2020-09-20 10:00:00 16.6 -- -- 18 Norte 0.2 -- -- 99
2020-09-20 09:00:00 16.9 -- -- 13 Norte 0 -- -- 98
2020-09-20 08:00:00 16.7 -- -- 10 Nordeste 0.2 -- -- 99
2020-09-20 07:00:00 16.7 -- -- 13 Nordeste 1 -- -- 97
2020-09-20 06:00:00 17 -- -- 8 Norte 0 -- -- 99
2020-09-20 05:00:00 16.8 -- -- 5 Norte 0 -- -- 99
2020-09-20 04:00:00 16.5 -- -- 3 Norte 0 -- -- 99
2020-09-20 03:00:00 16.4 -- -- 6 Norte 0 -- -- 98
2020-09-20 02:00:00 16.4 -- -- 6 Norte 0 -- -- 98
2020-09-20 01:00:00 16.6 -- -- 6 Norte 0 -- -- 97
2020-09-20 00:00:00 16.5 -- -- 32 Norte 1.4 -- -- 96
2020-09-19 23:00:00 17.6 -- -- 35 Este 0 -- -- 92
2020-09-19 22:00:00 17.3 -- -- 27 Norte 0.2 -- -- 90
2020-09-19 21:00:00 18.9 -- -- 20 Nordeste 0 -- -- 75
2020-09-19 20:00:00 19.3 -- -- 11 Nordeste 0 -- -- 73
2020-09-19 19:00:00 20.5 -- -- 14 Nordeste 0 -- -- 64
2020-09-19 18:00:00 21.3 -- -- 22 Nordeste 0 -- -- 57
2020-09-19 17:00:00 22.1 -- -- 27 Este 0 -- -- 55
2020-09-19 16:00:00 21.5 -- -- 33 Este 0 -- -- 67
2020-09-19 15:00:00 20.5 -- -- 29 Este 0 -- -- 77
2020-09-19 14:00:00 18.9 -- -- 32 Nordeste 0.4 -- -- 91
2020-09-19 13:00:00 18.9 -- -- 32 Este 0.2 -- -- 96
2020-09-19 12:00:00 16.5 -- -- 22 Nordeste 3.2 -- -- 100
2020-09-19 11:00:00 16.2 -- -- 26 Nordeste 4.2 -- -- 100
2020-09-19 10:00:00 16 -- -- 24 Nordeste 2.8 -- -- 100
2020-09-19 09:00:00 15.6 -- -- 30 Nordeste 7 -- -- 100
2020-09-19 08:00:00 16.1 -- -- 22 Nordeste 1 -- -- 100
2020-09-19 07:00:00 16 -- -- 23 Nordeste 5.2 -- -- 99
2020-09-19 06:00:00 16.1 -- -- 14 Nordeste 1.2 -- -- 99
2020-09-19 05:00:00 15.8 -- -- 12 Norte 3.4 -- -- 99
2020-09-19 04:00:00 15.8 -- -- 8 Norte 6.2 -- -- 99
2020-09-19 03:00:00 15.9 -- -- 11 Norte 3 -- -- 98
2020-09-19 02:00:00 15.8 -- -- 13 Nordeste 0 -- -- 98
2020-09-19 01:00:00 15.7 -- -- 8 Nordeste 0.4 -- -- 100
2020-09-19 00:00:00 15.1 -- -- 7 Norte 1.6 -- -- 99
2020-09-18 23:00:00 15.1 -- -- 10 Norte 16.2 -- -- 98
2020-09-18 22:00:00 16 -- -- 23 Nordeste 6.2 -- -- 93
2020-09-18 21:00:00 15.8 -- -- 15 Nordeste 4.6 -- -- 93
2020-09-18 20:00:00 17.1 -- -- 26 Nordeste 0.2 -- -- 92
2020-09-18 19:00:00 18.9 -- -- 21 Nordeste 0 -- -- 82
2020-09-18 18:00:00 19.2 -- -- 29 Nordeste 0.2 -- -- 81
2020-09-18 17:00:00 17.4 -- -- 19 Norte 1.2 -- -- 88
2020-09-18 16:00:00 20.7 5 Sudoeste 13 Sudoeste 0.4 -- -- 70
2020-09-18 15:00:00 22.1 6 Este 17 Nordeste 0 -- -- 55
2020-09-18 14:00:00 23.5 6 Este 14 Nordeste 0 -- -- 48
2020-09-18 13:00:00 23.4 4 Oeste 12 Norte 0 -- -- 46
2020-09-18 12:00:00 22.1 -- -- 10 Nordeste 0 -- -- 70
2020-09-18 11:00:00 20.9 -- -- 9 Nordeste 0 -- -- 82
2020-09-18 10:00:00 17.8 -- -- 12 Norte 0 -- -- 100
2020-09-18 09:00:00 16.4 -- -- 8 Norte 0 -- -- 100
2020-09-18 08:00:00 16 -- -- 8 Norte 2.4 -- -- 100
2020-09-18 07:00:00 16 -- -- 15 Nordeste 5.8 -- -- 99
2020-09-18 06:00:00 16.1 -- -- 19 Norte 4.2 -- -- 98
2020-09-18 05:00:00 16.2 -- -- 15 Nordeste 0.6 -- -- 97
2020-09-18 04:00:00 16.9 -- -- 13 Nordeste 1.4 -- -- 98
2020-09-18 03:00:00 16.5 -- -- 57 Este 12.2 -- -- 98
2020-09-18 02:00:00 17.9 3 Sudeste 6 Este 0 -- -- 96
2020-09-18 01:00:00 17.8 3 Este 6 Sudeste 0 -- -- 94
2020-09-18 00:00:00 18.5 6 Nordeste 14 Norte 1.2 -- -- 87
2020-09-17 23:00:00 18.3 9 Sudoeste 17 Sudoeste 0.2 -- -- 90
2020-09-17 22:00:00 18.5 6 Nordeste 48 Nordeste 4.6 -- -- 88
2020-09-17 21:00:00 20.8 10 Norte 29 Noroeste 0 -- -- 79
2020-09-17 20:00:00 17.6 14 Oeste 48 Sudoeste 6 -- -- 91
2020-09-17 19:00:00 25.2 12 Nordeste 21 Este 0 -- -- 57
2020-09-17 18:00:00 25.8 8 Nordeste 18 Nordeste 0 -- -- 56
2020-09-17 17:00:00 25.9 4 Nordeste 13 Nordeste 0 -- -- 57
2020-09-17 16:00:00 23.9 6 Nordeste 16 Este 0 -- -- 65
2020-09-17 15:00:00 21.2 5 Norte 22 Sudeste 0.4 -- -- 80
2020-09-17 14:00:00 24.1 11 Sudeste 26 Este 0 -- -- 57
2020-09-17 13:00:00 25.9 5 Este 24 Este 0 -- -- 49
2020-09-17 12:00:00 24.1 14 Este 32 Nordeste 0 -- -- 55
2020-09-17 11:00:00 22.9 14 Este 23 Este 0 -- -- 60
2020-09-17 10:00:00 21.3 9 Este 17 Este 0 -- -- 65
2020-09-17 09:00:00 20.9 3 Nordeste 15 Este 0 -- -- 67
2020-09-17 08:00:00 21 6 Este 23 Este 0 -- -- 64
2020-09-17 07:00:00 21.5 10 Nordeste 18 Nordeste 0 -- -- 64
2020-09-17 06:00:00 21.3 2 Norte 9 Norte 0 -- -- 64
2020-09-17 05:00:00 22.1 4 Norte 19 Este 0 -- -- 60
2020-09-17 04:00:00 23.1 12 Sudeste 23 Sudeste 0 -- -- 54
2020-09-17 03:00:00 22 7 Este 10 Este 0 -- -- 58
2020-09-17 02:00:00 22.8 3 Este 18 Este 0 -- -- 53
2020-09-17 01:00:00 24 4 Este 13 Nordeste 0 -- -- 49
2020-09-17 00:00:00 24.7 3 Sudeste 14 Este 0 -- -- 45
2020-09-16 23:00:00 25.9 4 Este 20 Este 0 -- -- 40
2020-09-16 22:00:00 25.2 4 Norte 18 Este 0 -- -- 43
2020-09-16 21:00:00 26.5 4 Norte 11 Norte 0 -- -- 39
2020-09-16 20:00:00 27.4 7 Norte 13 Noroeste 0 -- -- 38
2020-09-16 19:00:00 30.2 2 Oeste 6 Sudeste 0 -- -- 34
2020-09-16 18:00:00 31.4 3 Sudoeste 12 Sudoeste 0 -- -- 27
2020-09-16 17:00:00 33.2 7 Este 22 Este 0 -- -- 25
2020-09-16 16:00:00 32.3 8 Sudeste 20 Este 0 -- -- 28
2020-09-16 15:00:00 30.9 8 Nordeste 19 Este 0 -- -- 33
2020-09-16 14:00:00 31.2 9 Este 19 Sudeste 0 -- -- 34
2020-09-16 13:00:00 28.5 8 Nordeste 14 Este 0 -- -- 39
2020-09-16 12:00:00 28.3 4 Este 11 Este 0 -- -- 41
2020-09-16 11:00:00 24.2 4 Noroeste 8 Noroeste 0 -- -- 50
2020-09-16 10:00:00 20.9 4 Nordeste 6 Sudeste 0 -- -- 59
2020-09-16 09:00:00 17.9 3 Nordeste 6 Nordeste 0 -- -- 70
2020-09-16 08:00:00 14.9 3 Este 5 Nordeste 0 -- -- 77
2020-09-16 07:00:00 15.5 3 Nordeste 5 Nordeste 0 -- -- 75
2020-09-16 06:00:00 15.4 2 Este 5 Oeste 0 -- -- 75
2020-09-16 05:00:00 16.8 2 Nordeste 9 Este 0 -- -- 69
2020-09-16 04:00:00 18 3 Norte 5 Oeste 0 -- -- 64
2020-09-16 03:00:00 17.5 2 Oeste 8 Nordeste 0 -- -- 67
2020-09-16 02:00:00 19 5 Nordeste 8 Este 0 -- -- 64
2020-09-16 01:00:00 19.1 5 Nordeste 7 Este 0 -- -- 64
2020-09-16 00:00:00 21.4 2 Oeste 11 Oeste 0 -- -- 52
2020-09-15 23:00:00 22.7 6 Noroeste 10 Oeste 0 -- -- 48
2020-09-15 22:00:00 23.5 6 Noroeste 10 Oeste 0 -- -- 49
2020-09-15 21:00:00 23.6 3 Noroeste 9 Noroeste 0 -- -- 51
2020-09-15 20:00:00 28.3 5 Noroeste 13 Noroeste 0 -- -- 40
2020-09-15 19:00:00 30.3 10 Sudoeste 19 Sudoeste 0 -- -- 36
2020-09-15 18:00:00 30.9 12 Oeste 23 Oeste 0 -- -- 36
2020-09-15 17:00:00 31.3 6 Oeste 21 Sudoeste 0 -- -- 35
2020-09-15 16:00:00 30.4 13 Oeste 19 Noroeste 0 -- -- 35
2020-09-15 15:00:00 30.6 7 Sur 19 Oeste 0 -- -- 37
2020-09-15 14:00:00 28.1 8 Sudoeste 22 Sudoeste 0 -- -- 44
2020-09-15 13:00:00 27.6 7 Sur 13 Sur 0 -- -- 47
2020-09-15 12:00:00 26.2 8 Este 12 Este 0 -- -- 54
2020-09-15 11:00:00 25.1 3 Sur 9 Este 0 -- -- 59
2020-09-15 10:00:00 22.5 3 Este 5 Este 0 -- -- 70
2020-09-15 09:00:00 18.6 3 Nordeste 6 Este 0 -- -- 86
2020-09-15 08:00:00 16 0 Calma 4 Noroeste 0 -- -- 92
2020-09-15 07:00:00 16.3 2 Nordeste 4 Noroeste 0 -- -- 91
2020-09-15 06:00:00 16.6 0 Calma 5 Nordeste 0 -- -- 90
2020-09-15 05:00:00 16.8 4 Este 4 Nordeste 0 -- -- 90
2020-09-15 04:00:00 17.3 0 Calma 7 Nordeste 0 -- -- 86
2020-09-15 03:00:00 18.3 2 Oeste 9 Noroeste 0 -- -- 86
2020-09-15 02:00:00 19.4 5 Noroeste 9 Sudoeste 0 -- -- 83
2020-09-15 01:00:00 18.9 3 Sudoeste 14 Este 0 -- -- 86
2020-09-15 00:00:00 20.3 8 Este 29 Sudoeste 0 -- -- 79
2020-09-14 23:00:00 22.4 10 Norte 22 Sudoeste 0.4 -- -- 67
2020-09-14 22:00:00 22.7 5 Sudeste 29 Noroeste 0 -- -- 62
2020-09-14 21:00:00 24 26 Noroeste 68 Oeste 0 -- -- 50
2020-09-14 20:00:00 28.1 0 Calma 10 Sudoeste 0 -- -- 38
2020-09-14 19:00:00 33.8 4 Oeste 12 Sudoeste 0 -- -- 27
2020-09-14 18:00:00 32.4 8 Sudoeste 18 Sudoeste 0 -- -- 29
2020-09-14 17:00:00 34.7 7 Sur 18 Sur 0 -- -- 26
2020-09-14 16:00:00 34.2 5 Sur 19 Sur 0 -- -- 27
2020-09-14 15:00:00 33.2 8 Sudoeste 21 Este 0 -- -- 29
2020-09-14 14:00:00 32.2 6 Sur 22 Este 0 -- -- 32
2020-09-14 13:00:00 30.8 9 Este 20 Este 0 -- -- 34
2020-09-14 12:00:00 28.5 9 Nordeste 20 Este 0 -- -- 39
2020-09-14 11:00:00 26.3 5 Nordeste 14 Este 0 -- -- 44
2020-09-14 10:00:00 24.7 3 Nordeste 7 Este 0 -- -- 47
2020-09-14 09:00:00 20.2 0 Calma 4 Noroeste 0 -- -- 59
2020-09-14 08:00:00 20.4 2 Oeste 6 Noroeste 0 -- -- 54
2020-09-14 07:00:00 19.5 3 Oeste 7 Oeste 0 -- -- 56
2020-09-14 06:00:00 19.6 2 Este 9 Noroeste 0 -- -- 57
2020-09-14 05:00:00 20 5 Noroeste 8 Noroeste 0 -- -- 52
2020-09-14 04:00:00 20 6 Oeste 8 Oeste 0 -- -- 50
2020-09-14 03:00:00 21.3 4 Este 8 Este 0 -- -- 48
2020-09-14 02:00:00 23.6 4 Este 20 Este 0 -- -- 42
2020-09-14 01:00:00 28.7 13 Este 27 Nordeste 0 -- -- 31
2020-09-14 00:00:00 29.9 17 Nordeste 28 Nordeste 0 -- -- 29
2020-09-13 23:00:00 25.7 7 Nordeste 13 Nordeste 0 -- -- 39
2020-09-13 22:00:00 25.2 2 Oeste 5 Nordeste 0 -- -- 40
2020-09-13 21:00:00 27.1 3 Norte 8 Este 0 -- -- 37
2020-09-13 20:00:00 30.3 4 Nordeste 14 Nordeste 0 -- -- 35
2020-09-13 19:00:00 33 9 Este 17 Este 0 -- -- 29
2020-09-13 18:00:00 33.1 10 Nordeste 20 Nordeste 0 -- -- 27
2020-09-13 17:00:00 32.9 10 Nordeste 23 Nordeste 0 -- -- 28
2020-09-13 16:00:00 33.2 16 Este 32 Este 0 -- -- 28
2020-09-13 15:00:00 32.7 19 Este 32 Este 0 -- -- 29
2020-09-13 14:00:00 31.6 17 Este 27 Este 0 -- -- 31
2020-09-13 13:00:00 30.2 11 Este 32 Este 0 -- -- 35
2020-09-13 12:00:00 29.1 14 Nordeste 26 Este 0 -- -- 36
2020-09-13 11:00:00 27.8 16 Este 26 Este 0 -- -- 38
2020-09-13 10:00:00 26.7 9 Este 14 Este 0 -- -- 41
2020-09-13 09:00:00 22.1 3 Nordeste 10 Norte 0 -- -- 47
2020-09-13 08:00:00 20.5 5 Norte 10 Noroeste 0 -- -- 48
2020-09-13 07:00:00 20.7 7 Noroeste 14 Noroeste 0 -- -- 45
2020-09-13 06:00:00 23 4 Nordeste 14 Nordeste 0 -- -- 39
2020-09-13 05:00:00 20.1 3 Norte 9 Nordeste 0 -- -- 46
2020-09-13 04:00:00 22.4 6 Norte 12 Noroeste 0 -- -- 42
2020-09-13 03:00:00 20 0 Calma 5 Sudeste 0 -- -- 46
2020-09-13 02:00:00 20.8 3 Este 5 Sudeste 0 -- -- 47
2020-09-13 01:00:00 22.3 2 Este 6 Norte 0 -- -- 42
2020-09-13 00:00:00 22 3 Nordeste 7 Norte 0 -- -- 44
2020-09-12 23:00:00 23.9 2 Norte 5 Este 0 -- -- 40
2020-09-12 22:00:00 25.6 0 Calma 14 Norte 0 -- -- 34
2020-09-12 21:00:00 28.3 9 Norte 15 Norte 0 -- -- 31
2020-09-12 20:00:00 31.5 7 Norte 12 Norte 0 -- -- 29
2020-09-12 19:00:00 33.4 3 Este 13 Este 0 -- -- 25
2020-09-12 18:00:00 34.9 7 Este 26 Sudeste 0 -- -- 22
2020-09-12 17:00:00 36.9 5 Sudeste 22 Sur 0 -- -- 19
2020-09-12 16:00:00 36.3 9 Sudeste 22 Sur 0 -- -- 20
2020-09-12 15:00:00 35.3 7 Este 18 Este 0 -- -- 23
2020-09-12 14:00:00 34.3 9 Este 17 Sudeste 0 -- -- 24
2020-09-12 13:00:00 33.6 6 Sur 14 Sur 0 -- -- 25
2020-09-12 12:00:00 31.4 7 Sudeste 15 Sudeste 0 -- -- 29
2020-09-12 11:00:00 28.6 7 Este 12 Este 0 -- -- 32
2020-09-12 10:00:00 26.9 0 Calma 4 Norte 0 -- -- 35
2020-09-12 09:00:00 20.4 0 Calma 8 Oeste 0 -- -- 48
2020-09-12 08:00:00 16.9 4 Nordeste 8 Este 0 -- -- 56
2020-09-12 07:00:00 17.9 3 Norte 6 Norte 0 -- -- 53
2020-09-12 06:00:00 18.6 6 Norte 12 Sur 0 -- -- 50
2020-09-12 05:00:00 19 3 Oeste 9 Este 0 -- -- 51
2020-09-12 04:00:00 20.8 4 Norte 8 Norte 0 -- -- 45
2020-09-12 03:00:00 21.1 3 Norte 10 Nordeste 0 -- -- 43
2020-09-12 02:00:00 21.3 3 Noroeste 11 Noroeste 0 -- -- 45
2020-09-12 01:00:00 20.5 3 Sudoeste 10 Este 0 -- -- 45
2020-09-12 00:00:00 22.7 4 Oeste 7 Este 0 -- -- 38
2020-09-11 23:00:00 23.8 5 Este 15 Norte 0 -- -- 40
2020-09-11 22:00:00 26.1 6 Noroeste 12 Norte 0 -- -- 34
2020-09-11 21:00:00 27.2 8 Norte 12 Norte 0 -- -- 34
2020-09-11 20:00:00 32.9 3 Oeste 6 Sudoeste 0 -- -- 26
2020-09-11 19:00:00 33.5 3 Sudoeste 19 Sur 0 -- -- 23
2020-09-11 18:00:00 35.1 10 Sudoeste 22 Sudoeste 0 -- -- 21
2020-09-11 17:00:00 34.6 10 Sudoeste 27 Oeste 0 -- -- 21
2020-09-11 16:00:00 34.5 12 Sudoeste 18 Este 0 -- -- 21
2020-09-11 15:00:00 34.4 8 Sudeste 16 Sudeste 0 -- -- 22
2020-09-11 14:00:00 33.4 7 Sudeste 15 Este 0 -- -- 25
2020-09-11 13:00:00 31.5 6 Nordeste 16 Sudeste 0 -- -- 27
2020-09-11 12:00:00 30.7 8 Sudeste 17 Este 0 -- -- 28
2020-09-11 11:00:00 28.6 4 Este 10 Sudeste 0 -- -- 32
2020-09-11 10:00:00 28 2 Este 5 Sudeste 0 -- -- 33
2020-09-11 09:00:00 20.7 2 Norte 9 Este 0 -- -- 48
2020-09-11 08:00:00 16.3 3 Noroeste 8 Noroeste 0 -- -- 59
2020-09-11 07:00:00 16.1 4 Oeste 8 Noroeste 0 -- -- 58
2020-09-11 06:00:00 18 0 Calma 5 Oeste 0 -- -- 53
2020-09-11 05:00:00 17.4 5 Noroeste 17 Sudeste 0 -- -- 53
2020-09-11 04:00:00 18 6 Sudeste 19 Este 0 -- -- 52
2020-09-11 03:00:00 19.1 0 Calma 4 Sudeste 0 -- -- 49
2020-09-11 02:00:00 19.5 0 Calma 6 Sudeste 0 -- -- 49
2020-09-11 01:00:00 20.2 2 Este 6 Sudeste 0 -- -- 48
2020-09-11 00:00:00 21.1 2 Este 12 Este 0 -- -- 47
2020-09-10 23:00:00 22.1 4 Norte 10 Norte 0 -- -- 45
2020-09-10 22:00:00 23.6 4 Este 14 Norte 0 -- -- 40
2020-09-10 21:00:00 26.4 6 Noroeste 10 Noroeste 0 -- -- 34
2020-09-10 20:00:00 33.4 2 Oeste 10 Oeste 0 -- -- 25
2020-09-10 19:00:00 33.6 6 Noroeste 14 Oeste 0 -- -- 23
2020-09-10 18:00:00 34.5 7 Oeste 17 Sudoeste 0 -- -- 23
2020-09-10 17:00:00 34.4 8 Oeste 18 Sudoeste 0 -- -- 22
2020-09-10 16:00:00 33.2 11 Sudoeste 22 Sur 0 -- -- 21
2020-09-10 15:00:00 32.4 9 Sudoeste 17 Sudoeste 0 -- -- 25
2020-09-10 14:00:00 31.1 9 Sudoeste 15 Sur 0 -- -- 28
2020-09-10 13:00:00 29.9 4 Este 14 Este 0 -- -- 29
2020-09-10 12:00:00 29.3 8 Sudeste 16 Nordeste 0 -- -- 30
2020-09-10 11:00:00 27.4 2 Nordeste 5 Este 0 -- -- 32
2020-09-10 10:00:00 24.6 2 Este 6 Este 0 -- -- 38
2020-09-10 09:00:00 20.3 0 Calma 3 Norte 0 -- -- 52
2020-09-10 08:00:00 15.2 2 Nordeste 6 Nordeste 0 -- -- 55
2020-09-10 07:00:00 14.3 4 Este 12 Noroeste 0 -- -- 61
2020-09-10 06:00:00 13.8 8 Oeste 18 Este 0 -- -- 59
2020-09-10 05:00:00 16 2 Sudoeste 5 Sur 0 -- -- 54
2020-09-10 04:00:00 16.1 3 Nordeste 5 Este 0 -- -- 55
2020-09-10 03:00:00 16.4 4 Oeste 18 Sur 0 -- -- 53
2020-09-10 02:00:00 19.3 2 Nordeste 8 Norte 0 -- -- 47
2020-09-10 01:00:00 18.4 3 Sur 10 Sudeste 0 -- -- 51
2020-09-10 00:00:00 19.9 3 Nordeste 12 Este 0 -- -- 47
2020-09-09 23:00:00 24 7 Noroeste 10 Noroeste 0 -- -- 35
2020-09-09 22:00:00 22.8 4 Norte 12 Norte 0 -- -- 38
2020-09-09 21:00:00 25 8 Norte 10 Noroeste 0 -- -- 36
2020-09-09 20:00:00 31 5 Sudoeste 13 Sudoeste 0 -- -- 25
2020-09-09 19:00:00 31.8 10 Oeste 22 Oeste 0 -- -- 23
2020-09-09 18:00:00 33.3 6 Sur 21 Sur 0 -- -- 22
2020-09-09 17:00:00 33.1 6 Sudeste 17 Sur 0 -- -- 22
2020-09-09 16:00:00 32.9 4 Sudeste 23 Sur 0 -- -- 24
2020-09-09 15:00:00 31.5 8 Sur 22 Sudeste 0 -- -- 24
2020-09-09 14:00:00 29.9 9 Este 22 Este 0 -- -- 28
2020-09-09 13:00:00 28.8 4 Norte 14 Nordeste 0 -- -- 32
2020-09-09 12:00:00 27.2 4 Sudoeste 14 Sur 0 -- -- 34
2020-09-09 11:00:00 23.9 9 Sudoeste 15 Sur 0 -- -- 40
2020-09-09 10:00:00 23.2 2 Norte 8 Oeste 0 -- -- 41
2020-09-09 09:00:00 18.5 5 Noroeste 9 Sudoeste 0 -- -- 49
2020-09-09 08:00:00 14.2 4 Oeste 6 Noroeste 0 -- -- 59
2020-09-09 07:00:00 14.5 3 Oeste 6 Noroeste 0 -- -- 59
2020-09-09 06:00:00 15.2 0 Calma 6 Este 0 -- -- 56
2020-09-09 05:00:00 14 3 Este 5 Nordeste 0 -- -- 59
2020-09-09 04:00:00 15.1 3 Nordeste 6 Este 0 -- -- 57
2020-09-09 03:00:00 16.1 3 Nordeste 6 Este 0 -- -- 54
2020-09-09 02:00:00 17.4 0 Calma 8 Sudeste 0 -- -- 46
2020-09-09 01:00:00 19 2 Noroeste 6 Oeste 0 -- -- 48
2020-09-09 00:00:00 19.9 2 Sudoeste 12 Norte 0 -- -- 41
2020-09-08 23:00:00 23.6 6 Norte 12 Norte 0 -- -- 30
2020-09-08 22:00:00 23.7 5 Nordeste 13 Nordeste 0 -- -- 30
2020-09-08 21:00:00 23.4 3 Norte 13 Nordeste 0 -- -- 32
2020-09-08 20:00:00 27.7 6 Nordeste 20 Nordeste 0 -- -- 27
2020-09-08 19:00:00 29.6 10 Este 26 Este 0 -- -- 24
2020-09-08 18:00:00 29.5 15 Este 41 Nordeste 0 -- -- 26
2020-09-08 17:00:00 29.5 14 Este 29 Este 0 -- -- 28
2020-09-08 16:00:00 28.2 13 Este 31 Este 0 -- -- 32
2020-09-08 15:00:00 27 13 Nordeste 33 Este 0 -- -- 36
2020-09-08 14:00:00 25.8 17 Este 36 Sudeste 0 -- -- 37
2020-09-08 13:00:00 25.1 16 Este 34 Este 0 -- -- 38
2020-09-08 12:00:00 23.5 19 Este 33 Este 0 -- -- 43
2020-09-08 11:00:00 22.7 18 Este 33 Este 0 -- -- 41
2020-09-08 10:00:00 20.6 10 Nordeste 22 Nordeste 0 -- -- 38
2020-09-08 09:00:00 18.7 6 Nordeste 18 Nordeste 0 -- -- 41
2020-09-08 08:00:00 14.9 3 Nordeste 16 Nordeste 0 -- -- 50
2020-09-08 07:00:00 16.5 5 Nordeste 23 Nordeste 0 -- -- 43
2020-09-08 06:00:00 17.6 13 Nordeste 24 Este 0 -- -- 40
2020-09-08 05:00:00 18.4 8 Nordeste 31 Este 0 -- -- 38
2020-09-08 04:00:00 20.1 13 Nordeste 26 Nordeste 0 -- -- 36
2020-09-08 03:00:00 18.8 7 Este 26 Este 0 -- -- 39
2020-09-08 02:00:00 19.9 8 Nordeste 19 Este 0 -- -- 38
2020-09-08 01:00:00 18.5 2 Norte 8 Sudoeste 0 -- -- 40
2020-09-08 00:00:00 19.8 5 Nordeste 11 Este 0 -- -- 37
2020-09-07 23:00:00 22.7 6 Nordeste 12 Nordeste 0 -- -- 30
2020-09-07 22:00:00 23 5 Norte 19 Este 0 -- -- 30
2020-09-07 21:00:00 26.2 6 Nordeste 19 Este 0 -- -- 24
2020-09-07 20:00:00 30.3 13 Este 22 Este 0 -- -- 20
2020-09-07 19:00:00 34 5 Sudeste 12 Nordeste 0 -- -- 22
2020-09-07 18:00:00 33.4 6 Sudeste 18 Sur 0 -- -- 23
2020-09-07 17:00:00 32.7 8 Sudeste 19 Este 0 -- -- 24
2020-09-07 16:00:00 32 7 Sur 22 Sur 0 -- -- 24
2020-09-07 15:00:00 31.2 7 Sur 17 Este 0 -- -- 25
2020-09-07 14:00:00 28.4 8 Este 22 Nordeste 0 -- -- 29
2020-09-07 13:00:00 27.4 8 Este 21 Este 0 -- -- 30
2020-09-07 12:00:00 26.7 7 Este 18 Este 0 -- -- 34
2020-09-07 11:00:00 25 9 Este 15 Este 0 -- -- 35
2020-09-07 10:00:00 23.2 7 Este 13 Este 0 -- -- 39
2020-09-07 09:00:00 21.1 7 Nordeste 13 Este 0 -- -- 46
2020-09-07 08:00:00 18.1 3 Oeste 6 Sudoeste 0 -- -- 56
2020-09-07 07:00:00 19 4 Oeste 6 Este 0 -- -- 53
2020-09-07 06:00:00 19.3 3 Nordeste 7 Norte 0 -- -- 54
2020-09-07 05:00:00 20.7 4 Norte 8 Noroeste 0 -- -- 48
2020-09-07 04:00:00 21.3 3 Nordeste 11 Norte 0 -- -- 47
2020-09-07 03:00:00 22.7 7 Noroeste 15 Oeste 0 -- -- 44
2020-09-07 02:00:00 23.1 5 Sudoeste 13 Este 0 -- -- 43
2020-09-07 01:00:00 25.2 6 Sudoeste 15 Sur 0 -- -- 40
2020-09-07 00:00:00 24.2 3 Nordeste 10 Oeste 0 -- -- 43
2020-09-06 23:00:00 25.6 5 Este 12 Sur 0 -- -- 40
2020-09-06 22:00:00 27.2 2 Oeste 11 Noroeste 0 -- -- 35
2020-09-06 21:00:00 29.5 6 Noroeste 16 Norte 0 -- -- 30
2020-09-06 20:00:00 33.6 9 Sudoeste 18 Sur 0 -- -- 25
2020-09-06 19:00:00 36.3 9 Sudoeste 21 Sudoeste 0 -- -- 23
2020-09-06 18:00:00 36.6 10 Sudoeste 24 Oeste 0 -- -- 20
2020-09-06 17:00:00 36.9 11 Sur 18 Sudoeste 0 -- -- 18
2020-09-06 16:00:00 36.3 11 Oeste 18 Sur 0 -- -- 21
2020-09-06 15:00:00 35 9 Sur 18 Sudeste 0 -- -- 23
2020-09-06 14:00:00 33.2 7 Sudoeste 17 Este 0 -- -- 25
2020-09-06 13:00:00 32.4 5 Noroeste 17 Este 0 -- -- 27
2020-09-06 12:00:00 30.7 8 Nordeste 18 Este 0 -- -- 29
2020-09-06 11:00:00 28.7 12 Este 20 Este 0 -- -- 34
2020-09-06 10:00:00 28.7 0 Calma 9 Noroeste 0 -- -- 35
2020-09-06 09:00:00 22.6 3 Noroeste 8 Oeste 0 -- -- 47
2020-09-06 08:00:00 18 5 Noroeste 8 Oeste 0 -- -- 52
2020-09-06 07:00:00 20.1 5 Noroeste 9 Noroeste 0 -- -- 42
2020-09-06 06:00:00 19.1 5 Noroeste 7 Oeste 0 -- -- 46
2020-09-06 05:00:00 20.1 5 Noroeste 10 Noroeste 0 -- -- 44
2020-09-06 04:00:00 18.5 4 Oeste 21 Este 0 -- -- 47
2020-09-06 03:00:00 19.5 4 Oeste 9 Este 0 -- -- 44
2020-09-06 02:00:00 20.5 4 Noroeste 9 Este 0 -- -- 49
2020-09-06 01:00:00 21.5 3 Nordeste 10 Este 0 -- -- 41
2020-09-06 00:00:00 23.9 6 Este 12 Este 0 -- -- 38
2020-09-05 23:00:00 27.2 8 Norte 17 Norte 0 -- -- 29
2020-09-05 22:00:00 27.4 8 Norte 14 Norte 0 -- -- 30
2020-09-05 21:00:00 28.1 6 Nordeste 11 Noroeste 0 -- -- 37
2020-09-05 20:00:00 34.2 6 Oeste 11 Sudoeste 0 -- -- 28
2020-09-05 19:00:00 36.8 5 Noroeste 15 Sur 0 -- -- 23
2020-09-05 18:00:00 36.2 10 Sudoeste 20 Oeste 0 -- -- 24
2020-09-05 17:00:00 36.3 9 Oeste 19 Sudoeste 0 -- -- 25
2020-09-05 16:00:00 35.9 6 Sur 22 Sudoeste 0 -- -- 26
2020-09-05 15:00:00 35.1 7 Sudoeste 20 Sudoeste 0 -- -- 27
2020-09-05 14:00:00 33 6 Sudeste 22 Sur 0 -- -- 32
2020-09-05 13:00:00 32.2 7 Sudeste 17 Este 0 -- -- 32
2020-09-05 12:00:00 31.1 3 Sudeste 12 Sudeste 0 -- -- 35
2020-09-05 11:00:00 27.8 6 Sudeste 14 Este 0 -- -- 38
2020-09-05 10:00:00 26.4 2 Noroeste 8 Noroeste 0 -- -- 37
2020-09-05 09:00:00 21.2 2 Sudeste 5 Sudeste 0 -- -- 48
2020-09-05 08:00:00 17.2 3 Noroeste 6 Este 0 -- -- 54
2020-09-05 07:00:00 16.9 2 Oeste 8 Oeste 0 -- -- 53
2020-09-05 06:00:00 17.9 2 Sudoeste 6 Sudeste 0 -- -- 51
2020-09-05 05:00:00 17.8 0 Calma 7 Este 0 -- -- 53
2020-09-05 04:00:00 18.9 0 Calma 7 Nordeste 0 -- -- 54
2020-09-05 03:00:00 19.9 5 Nordeste 7 Este 0 -- -- 48
2020-09-05 02:00:00 20.9 0 Calma 7 Noroeste 0 -- -- 45
2020-09-05 01:00:00 21.4 2 Oeste 4 Este 0 -- -- 48
2020-09-05 00:00:00 22.2 3 Este 5 Este 0 -- -- 43
2020-09-04 23:00:00 24.5 3 Noroeste 9 Norte 0 -- -- 37
2020-09-04 22:00:00 25.8 4 Norte 7 Norte 0 -- -- 34
2020-09-04 21:00:00 27 5 Norte 10 Norte 0 -- -- 34
2020-09-04 20:00:00 34.1 4 Nordeste 14 Este 0 -- -- 23
2020-09-04 19:00:00 37 3 Nordeste 23 Este 0 -- -- 19
2020-09-04 18:00:00 36.9 8 Sudeste 32 Sudeste 0 -- -- 21
2020-09-04 17:00:00 36 10 Sudeste 23 Sudeste 0 -- -- 23
2020-09-04 16:00:00 35.3 7 Nordeste 21 Nordeste 0 -- -- 26
2020-09-04 15:00:00 35.1 12 Sudeste 23 Este 0 -- -- 27
2020-09-04 14:00:00 33.4 10 Este 21 Este 0 -- -- 30
2020-09-04 13:00:00 31.9 9 Este 22 Este 0 -- -- 33
2020-09-04 12:00:00 30.1 3 Norte 21 Este 0 -- -- 36
2020-09-04 11:00:00 28.8 4 Norte 8 Nordeste 0 -- -- 36
2020-09-04 10:00:00 24.7 5 Oeste 8 Noroeste 0 -- -- 35
2020-09-04 09:00:00 19.8 4 Sudoeste 7 Noroeste 0 -- -- 46
2020-09-04 08:00:00 17.8 4 Noroeste 10 Nordeste 0 -- -- 48
2020-09-04 07:00:00 18.3 5 Nordeste 12 Este 0 -- -- 46
2020-09-04 06:00:00 19.3 5 Nordeste 13 Nordeste 0 -- -- 44
2020-09-04 05:00:00 17 5 Nordeste 8 Este 0 -- -- 53
2020-09-04 04:00:00 18.1 3 Oeste 13 Sudeste 0 -- -- 46
2020-09-04 03:00:00 19 4 Este 7 Este 0 -- -- 49
2020-09-04 02:00:00 20.8 6 Nordeste 12 Noroeste 0 -- -- 45
2020-09-04 01:00:00 22.4 4 Norte 8 Este 0 -- -- 39
2020-09-04 00:00:00 21.5 3 Sudeste 6 Este 0 -- -- 44
2020-09-03 23:00:00 24.2 4 Sudeste 14 Norte 0 -- -- 37
2020-09-03 22:00:00 25.1 5 Nordeste 12 Norte 0 -- -- 36
2020-09-03 21:00:00 27.8 8 Norte 10 Norte 0 -- -- 31
2020-09-03 20:00:00 33.9 6 Sudoeste 12 Sudoeste 0 -- -- 23
2020-09-03 19:00:00 35.8 5 Oeste 17 Sur 0 -- -- 19
2020-09-03 18:00:00 36.4 5 Sur 17 Sudeste 0 -- -- 19
2020-09-03 17:00:00 36.1 6 Sur 17 Sudeste 0 -- -- 19
2020-09-03 16:00:00 35.2 5 Sur 22 Sur 0 -- -- 20
2020-09-03 15:00:00 33.9 9 Este 18 Este 0 -- -- 22
2020-09-03 14:00:00 33 9 Sur 18 Sudoeste 0 -- -- 23
2020-09-03 13:00:00 31.1 8 Este 16 Este 0 -- -- 24
2020-09-03 12:00:00 29 6 Nordeste 17 Este 0 -- -- 29
2020-09-03 11:00:00 26.2 5 Nordeste 12 Nordeste 0 -- -- 32
2020-09-03 10:00:00 24 3 Nordeste 4 Este 0 -- -- 36
2020-09-03 09:00:00 20.5 0 Calma 5 Nordeste 0 -- -- 45
2020-09-03 08:00:00 15.5 2 Sudoeste 6 Oeste 0 -- -- 56
2020-09-03 07:00:00 14.9 3 Este 10 Este 0 -- -- 57
2020-09-03 06:00:00 16.6 6 Norte 9 Este 0 -- -- 49
2020-09-03 05:00:00 16.1 3 Nordeste 6 Nordeste 0 -- -- 52
2020-09-03 04:00:00 18.1 0 Calma 5 Sur 0 -- -- 48
2020-09-03 03:00:00 18.1 3 Sur 11 Oeste 0 -- -- 51
2020-09-03 02:00:00 19.3 3 Sudoeste 5 Oeste 0 -- -- 43
2020-09-03 01:00:00 19.9 2 Sudeste 6 Sudeste 0 -- -- 43
2020-09-03 00:00:00 20.9 3 Este 10 Nordeste 0 -- -- 40
2020-09-02 23:00:00 21.4 5 Nordeste 12 Norte 0 -- -- 44
2020-09-02 22:00:00 24.8 6 Norte 11 Noroeste 0 -- -- 33
2020-09-02 21:00:00 26 6 Norte 9 Norte 0 -- -- 32
2020-09-02 20:00:00 32.2 6 Sudoeste 16 Sudoeste 0 -- -- 23
2020-09-02 19:00:00 34 6 Sudeste 17 Sudoeste 0 -- -- 20
2020-09-02 18:00:00 33.1 9 Este 17 Sur 0 -- -- 22
2020-09-02 17:00:00 33.9 10 Sur 19 Sudoeste 0 -- -- 20
2020-09-02 16:00:00 33.4 12 Sudeste 22 Sur 0 -- -- 21
2020-09-02 15:00:00 31.9 10 Sudoeste 24 Sur 0 -- -- 22
2020-09-02 14:00:00 31.3 8 Sudeste 21 Nordeste 0 -- -- 25
2020-09-02 13:00:00 30.2 7 Este 23 Nordeste 0 -- -- 26
2020-09-02 12:00:00 28.4 6 Este 17 Este 0 -- -- 26
2020-09-02 11:00:00 26.1 3 Nordeste 9 Este 0 -- -- 29
2020-09-02 10:00:00 22.1 3 Nordeste 8 Este 0 -- -- 35
2020-09-02 09:00:00 17.8 3 Nordeste 6 Nordeste 0 -- -- 46
2020-09-02 08:00:00 13.4 0 Calma 4 Oeste 0 -- -- 52
2020-09-02 07:00:00 14.4 3 Oeste 7 Noroeste 0 -- -- 49
2020-09-02 06:00:00 13.3 2 Oeste 7 Sur 0 -- -- 55
2020-09-02 05:00:00 13.9 5 Sudoeste 10 Oeste 0 -- -- 49
2020-09-02 04:00:00 14.2 9 Este 21 Este 0 -- -- 51
2020-09-02 03:00:00 15.8 0 Calma 6 Noroeste 0 -- -- 52
2020-09-02 02:00:00 16.8 2 Sudeste 8 Sudeste 0 -- -- 46
2020-09-02 01:00:00 17.7 2 Este 8 Este 0 -- -- 42
2020-09-02 00:00:00 19.1 2 Sudeste 6 Norte 0 -- -- 40
2020-09-01 23:00:00 20.2 3 Nordeste 14 Norte 0 -- -- 39
2020-09-01 22:00:00 23.5 11 Norte 15 Norte 0 -- -- 29
2020-09-01 21:00:00 24.2 8 Norte 12 Norte 0 -- -- 35
2020-09-01 20:00:00 30.9 0 Calma 9 Sudoeste 0 -- -- 24
2020-09-01 19:00:00 30.4 2 Sudoeste 17 Sudoeste 0 -- -- 22
2020-09-01 18:00:00 31.7 8 Sudoeste 20 Sudoeste 0 -- -- 20
2020-09-01 17:00:00 31.4 7 Sudeste 24 Sur 0 -- -- 19
2020-09-01 16:00:00 32.2 10 Sur 23 Sudoeste 0 -- -- 19
2020-09-01 15:00:00 31 10 Sudoeste 25 Sudoeste 0 -- -- 19
2020-09-01 14:00:00 29.5 9 Sur 18 Sudoeste 0 -- -- 20
2020-09-01 13:00:00 29 4 Oeste 13 Sur 0 -- -- 24
2020-09-01 12:00:00 26.3 3 Nordeste 11 Sudoeste 0 -- -- 29
2020-09-01 11:00:00 25.2 3 Oeste 9 Sudoeste 0 -- -- 29
2020-09-01 10:00:00 19.3 5 Sudoeste 10 Sudoeste 0 -- -- 43
2020-09-01 09:00:00 15.3 3 Sudoeste 8 Oeste 0 -- -- 58
2020-09-01 08:00:00 15.5 0 Calma 9 Noroeste 0 -- -- 52
2020-09-01 07:00:00 15 6 Sudeste 9 Sudeste 0 -- -- 54
2020-09-01 06:00:00 14.9 0 Calma 5 Nordeste 0 -- -- 60
2020-09-01 05:00:00 16 2 Oeste 7 Norte 0 -- -- 51
2020-09-01 04:00:00 15.8 3 Nordeste 9 Este 0 -- -- 50
2020-09-01 03:00:00 14.6 4 Este 5 Este 0 -- -- 57
2020-09-01 02:00:00 16.3 3 Oeste 5 Oeste 0 -- -- 47
2020-09-01 01:00:00 16.3 0 Calma 5 Nordeste 0 -- -- 46
2020-09-01 00:00:00 16.7 4 Este 5 Este 0 -- -- 46
2020-08-31 23:00:00 19.2 2 Este 14 Norte 0 -- -- 38
2020-08-31 22:00:00 21.1 8 Norte 13 Norte 0 -- -- 35
2020-08-31 21:00:00 22.3 6 Norte 10 Norte 0 -- -- 34
2020-08-31 20:00:00 28.9 5 Sudoeste 13 Sudoeste 0 -- -- 21
2020-08-31 19:00:00 29.6 8 Sudoeste 15 Sudoeste 0 -- -- 21
2020-08-31 18:00:00 29.3 4 Sur 16 Sudoeste 0 -- -- 23
2020-08-31 17:00:00 30.4 9 Sudeste 22 Sur 0 -- -- 21
2020-08-31 16:00:00 28.2 6 Oeste 18 Oeste 0 -- -- 23
2020-08-31 15:00:00 27.7 7 Oeste 20 Sudoeste 0 -- -- 24
2020-08-31 14:00:00 25.8 3 Norte 10 Nordeste 0 -- -- 25
2020-08-31 13:00:00 26 8 Sudeste 21 Este 0 -- -- 25
2020-08-31 12:00:00 24.3 11 Este 23 Este 0 -- -- 29
2020-08-31 11:00:00 23.1 8 Este 23 Este 0 -- -- 31
2020-08-31 10:00:00 21.2 5 Sur 9 Sur 0 -- -- 35
2020-08-31 09:00:00 16.5 3 Noroeste 8 Este 0 -- -- 46
2020-08-31 08:00:00 10.9 4 Sudeste 6 Sur 0 -- -- 59
2020-08-31 07:00:00 13.2 4 Norte 9 Norte 0 -- -- 52
2020-08-31 06:00:00 12.9 4 Norte 12 Nordeste 0 -- -- 52
2020-08-31 05:00:00 11.9 7 Nordeste 17 Este 0 -- -- 60
2020-08-31 04:00:00 13.2 3 Nordeste 7 Norte 0 -- -- 56
2020-08-31 03:00:00 15 5 Noroeste 9 Noroeste 0 -- -- 48
2020-08-31 02:00:00 14.9 5 Noroeste 10 Sur 0 -- -- 45
2020-08-31 01:00:00 15.6 0 Calma 6 Norte 0 -- -- 47
2020-08-31 00:00:00 16.2 3 Noroeste 6 Norte 0 -- -- 45
2020-08-30 23:00:00 17 3 Nordeste 18 Sudeste 0 -- -- 44
2020-08-30 22:00:00 20.6 9 Sur 14 Sur 0 -- -- 32
2020-08-30 21:00:00 22.8 5 Sur 12 Oeste 0 -- -- 32
2020-08-30 20:00:00 27.5 5 Sudoeste 15 Sudoeste 0 -- -- 26
2020-08-30 19:00:00 28.7 8 Sur 18 Sudeste 0 -- -- 24
2020-08-30 18:00:00 27.4 7 Este 22 Sudeste 0 -- -- 25
2020-08-30 17:00:00 27.4 12 Este 19 Este 0 -- -- 26
2020-08-30 16:00:00 26.5 9 Oeste 22 Sudoeste 0 -- -- 27
2020-08-30 15:00:00 25.9 12 Sudeste 25 Sudeste 0 -- -- 28
2020-08-30 14:00:00 25.7 9 Sudeste 17 Sudeste 0 -- -- 29
2020-08-30 13:00:00 22.9 7 Nordeste 15 Nordeste 0 -- -- 34
2020-08-30 12:00:00 22.7 8 Sudeste 17 Este 0 -- -- 35
2020-08-30 11:00:00 21.5 4 Este 14 Este 0 -- -- 39
2020-08-30 10:00:00 19.4 4 Nordeste 9 Este 0 -- -- 46
2020-08-30 09:00:00 17 2 Oeste 8 Norte 0 -- -- 53
2020-08-30 08:00:00 10.8 2 Nordeste 7 Oeste 0 -- -- 73
2020-08-30 07:00:00 12.2 4 Noroeste 6 Noroeste 0 -- -- 67
2020-08-30 06:00:00 12.5 4 Noroeste 6 Oeste 0 -- -- 64
2020-08-30 05:00:00 13.4 3 Noroeste 6 Noroeste 0 -- -- 62
2020-08-30 04:00:00 13.9 4 Noroeste 5 Noroeste 0 -- -- 59
2020-08-30 03:00:00 14.5 0 Calma 6 Oeste 0 -- -- 57
2020-08-30 02:00:00 17.2 3 Sudeste 15 Sur 0 -- -- 47
2020-08-30 01:00:00 18.3 5 Sudeste 15 Sur 0 -- -- 43
2020-08-30 00:00:00 19.1 3 Norte 22 Sudoeste 0 -- -- 39
2020-08-29 23:00:00 21.3 11 Sur 31 Noroeste 0 -- -- 33
2020-08-29 22:00:00 21.9 6 Noroeste 23 Norte 0 -- -- 32
2020-08-29 21:00:00 23 12 Noroeste 37 Norte 0 -- -- 28
2020-08-29 20:00:00 25.4 21 Noroeste 40 Noroeste 0 -- -- 25
2020-08-29 19:00:00 27.5 20 Noroeste 35 Noroeste 0 -- -- 23
2020-08-29 18:00:00 28.2 9 Noroeste 42 Noroeste 0 -- -- 23
2020-08-29 17:00:00 27.1 22 Noroeste 40 Noroeste 0 -- -- 23
2020-08-29 16:00:00 27.1 16 Noroeste 45 Noroeste 0 -- -- 24
2020-08-29 15:00:00 26.8 25 Oeste 41 Oeste 0 -- -- 25
2020-08-29 14:00:00 25.5 8 Noroeste 33 Oeste 0 -- -- 27
2020-08-29 13:00:00 25.3 12 Sudoeste 28 Oeste 0 -- -- 28
2020-08-29 12:00:00 24.5 11 Este 23 Este 0 -- -- 30
2020-08-29 11:00:00 23.3 9 Sur 16 Oeste 0 -- -- 32
2020-08-29 10:00:00 22.1 6 Sudeste 11 Sudeste 0 -- -- 37
2020-08-29 09:00:00 19.1 4 Sudeste 10 Norte 0 -- -- 44
2020-08-29 08:00:00 15.7 2 Nordeste 13 Oeste 0 -- -- 49
2020-08-29 07:00:00 15.1 3 Nordeste 10 Este 0 -- -- 50
2020-08-29 06:00:00 18 11 Sudeste 23 Sur 0 -- -- 41
2020-08-29 05:00:00 17.1 8 Este 18 Sudeste 0 -- -- 45
2020-08-29 04:00:00 19.8 11 Sur 18 Sur 0 -- -- 37
2020-08-29 03:00:00 19.6 6 Norte 17 Oeste 0 -- -- 39
2020-08-29 02:00:00 20.9 7 Noroeste 23 Noroeste 0 -- -- 36
2020-08-29 01:00:00 22.3 6 Oeste 33 Oeste 0 -- -- 31
2020-08-29 00:00:00 25 11 Noroeste 28 Sudoeste 0 -- -- 26
2020-08-28 23:00:00 26.2 11 Sur 24 Este 0 -- -- 22
2020-08-28 22:00:00 25.1 3 Nordeste 35 Oeste 0 -- -- 22
2020-08-28 21:00:00 28.1 15 Noroeste 36 Oeste 0 -- -- 17
2020-08-28 20:00:00 32.4 13 Oeste 32 Noroeste 0 -- -- 17
2020-08-28 19:00:00 33.8 19 Noroeste 36 Noroeste 0 -- -- 17
2020-08-28 18:00:00 33.3 19 Sudoeste 39 Sur 0 -- -- 22
2020-08-28 17:00:00 34 23 Sudoeste 39 Sudoeste 0 -- -- 19
2020-08-28 16:00:00 34.7 17 Sudoeste 30 Sur 0 -- -- 22
2020-08-28 15:00:00 33.7 13 Sudoeste 24 Sudoeste 0 -- -- 29
2020-08-28 14:00:00 32.6 5 Norte 15 Este 0 -- -- 32
2020-08-28 13:00:00 30.7 7 Sudoeste 19 Sudoeste 0 -- -- 37
2020-08-28 12:00:00 30.1 6 Sudoeste 12 Oeste 0 -- -- 43
2020-08-28 11:00:00 27.9 3 Oeste 10 Oeste 0 -- -- 47
2020-08-28 10:00:00 26 3 Este 9 Este 0 -- -- 53
2020-08-28 09:00:00 24.1 5 Este 7 Este 0 -- -- 56
2020-08-28 08:00:00 19 3 Nordeste 6 Nordeste 0 -- -- 66
2020-08-28 07:00:00 19.6 2 Nordeste 5 Norte 0 -- -- 63
2020-08-28 06:00:00 20.5 2 Nordeste 5 Norte 0 -- -- 58
2020-08-28 05:00:00 20.3 3 Nordeste 6 Norte 0 -- -- 60
2020-08-28 04:00:00 23.1 4 Norte 6 Norte 0 -- -- 48
2020-08-28 03:00:00 23.6 2 Sudeste 20 Sur 0 -- -- 49
2020-08-28 02:00:00 25.9 6 Sur 16 Oeste 0 -- -- 38
2020-08-28 01:00:00 27.5 4 Sur 24 Noroeste 0 -- -- 37
2020-08-28 00:00:00 31.6 12 Noroeste 27 Noroeste 0 -- -- 27
2020-08-27 23:00:00 31.2 5 Noroeste 29 Norte 0 -- -- 27
2020-08-27 22:00:00 30.8 4 Norte 30 Noroeste 0 -- -- 35
2020-08-27 21:00:00 31.5 2 Noroeste 23 Sudoeste 0 -- -- 37
2020-08-27 20:00:00 36.1 15 Sudoeste 24 Sudoeste 0 -- -- 27
2020-08-27 19:00:00 38.3 15 Sudoeste 27 Sudoeste 0 -- -- 21
2020-08-27 18:00:00 38.9 13 Sur 24 Sur 0 -- -- 21
2020-08-27 17:00:00 38.8 8 Sudoeste 22 Sudoeste 0 -- -- 19
2020-08-27 16:00:00 38.7 6 Sudoeste 18 Sudoeste 0 -- -- 19
2020-08-27 15:00:00 37 9 Sudoeste 23 Sudoeste 0 -- -- 21
2020-08-27 14:00:00 36.2 8 Sudeste 16 Sudeste 0 -- -- 21
2020-08-27 13:00:00 35.2 7 Sudeste 14 Este 0 -- -- 22
2020-08-27 12:00:00 33.3 2 Norte 10 Este 0 -- -- 25
2020-08-27 11:00:00 31.1 3 Nordeste 7 Sudeste 0 -- -- 28
2020-08-27 10:00:00 28.7 0 Calma 4 Sudeste 0 -- -- 31
2020-08-27 09:00:00 22.9 0 Calma 2 Noroeste 0 -- -- 43
2020-08-27 08:00:00 16.9 0 Calma 6 Noroeste 0 -- -- 58
2020-08-27 07:00:00 17.2 0 Calma 5 Nordeste 0 -- -- 57
2020-08-27 06:00:00 19.8 2 Oeste 6 Norte 0 -- -- 46
2020-08-27 05:00:00 18.6 4 Este 9 Nordeste 0 -- -- 53
2020-08-27 04:00:00 18.9 5 Nordeste 8 Nordeste 0 -- -- 51
2020-08-27 03:00:00 20.3 4 Este 9 Norte 0 -- -- 49
2020-08-27 02:00:00 22.2 5 Sudeste 10 Sudoeste 0 -- -- 39
2020-08-27 01:00:00 22.7 5 Nordeste 9 Nordeste 0 -- -- 40
2020-08-27 00:00:00 24.4 0 Calma 11 Norte 0 -- -- 35
2020-08-26 23:00:00 25.4 4 Sudeste 10 Norte 0 -- -- 32
2020-08-26 22:00:00 28.2 4 Noroeste 12 Norte 0 -- -- 29
2020-08-26 21:00:00 30.7 6 Norte 12 Sudoeste 0 -- -- 25
2020-08-26 20:00:00 37 9 Sudoeste 21 Sudoeste 0 -- -- 17
2020-08-26 19:00:00 38.4 13 Sudoeste 23 Sudoeste 0 -- -- 14
2020-08-26 18:00:00 39.1 14 Sudoeste 22 Sudoeste 0 -- -- 13
2020-08-26 17:00:00 39.3 14 Sudoeste 23 Sudoeste 0 -- -- 13
2020-08-26 16:00:00 39.1 8 Oeste 22 Sudoeste 0 -- -- 14
2020-08-26 15:00:00 38.4 9 Sur 23 Sudoeste 0 -- -- 14
2020-08-26 14:00:00 36.4 9 Sudoeste 18 Sur 0 -- -- 21
2020-08-26 13:00:00 34.6 8 Oeste 17 Oeste 0 -- -- 22
2020-08-26 12:00:00 33.7 3 Norte 7 Sudeste 0 -- -- 24
2020-08-26 11:00:00 30.6 5 Sudeste 10 Este 0 -- -- 29
2020-08-26 10:00:00 27.6 2 Noroeste 9 Este 0 -- -- 33
2020-08-26 09:00:00 22.5 5 Este 7 Nordeste 0 -- -- 44
2020-08-26 08:00:00 17.8 3 Este 5 Sur 0 -- -- 57
2020-08-26 07:00:00 18.5 2 Este 6 Este 0 -- -- 53
2020-08-26 06:00:00 18.6 4 Este 6 Este 0 -- -- 57
2020-08-26 05:00:00 19.7 2 Norte 8 Noroeste 0 -- -- 50
2020-08-26 04:00:00 21.2 5 Noroeste 8 Noroeste 0 -- -- 45
2020-08-26 03:00:00 21.2 6 Nordeste 10 Norte 0 -- -- 50
2020-08-26 02:00:00 23.9 5 Norte 14 Noroeste 0 -- -- 39
2020-08-26 01:00:00 22.2 3 Nordeste 8 Este 0 -- -- 46
2020-08-26 00:00:00 24.3 4 Este 14 Oeste 0 -- -- 39
2020-08-25 23:00:00 25.8 5 Noroeste 16 Oeste 0 -- -- 34
2020-08-25 22:00:00 28.8 5 Norte 13 Norte 0 -- -- 29
2020-08-25 21:00:00 30.8 6 Norte 10 Sudoeste 0 -- -- 28
2020-08-25 20:00:00 37.1 8 Sudoeste 20 Sudoeste 0 -- -- 20
2020-08-25 19:00:00 38.5 10 Sudoeste 19 Sudoeste 0 -- -- 18
2020-08-25 18:00:00 38.5 14 Sudoeste 27 Sudoeste 0 -- -- 17
2020-08-25 17:00:00 38 15 Sudoeste 30 Sudoeste 0 -- -- 18
2020-08-25 16:00:00 37.7 17 Sudoeste 27 Sudoeste 0 -- -- 18
2020-08-25 15:00:00 37 7 Sudoeste 15 Sudoeste 0 -- -- 20
2020-08-25 14:00:00 35.6 9 Oeste 22 Sudoeste 0 -- -- 22
2020-08-25 13:00:00 34.1 5 Sudoeste 14 Sudoeste 0 -- -- 25
2020-08-25 12:00:00 31.7 5 Oeste 11 Oeste 0 -- -- 30
2020-08-25 11:00:00 30 4 Oeste 9 Sur 0 -- -- 34
2020-08-25 10:00:00 26.8 4 Sudoeste 6 Sur 0 -- -- 39
2020-08-25 09:00:00 23.4 2 Oeste 5 Este 0 -- -- 46
2020-08-25 08:00:00 18.4 0 Calma 8 Nordeste 0 -- -- 57
2020-08-25 07:00:00 19.8 4 Nordeste 6 Nordeste 0 -- -- 50
2020-08-25 06:00:00 20.2 4 Noroeste 6 Noroeste 0 -- -- 51
2020-08-25 05:00:00 20 5 Oeste 8 Oeste 0 -- -- 52
2020-08-25 04:00:00 20.1 2 Oeste 6 Nordeste 0 -- -- 55
2020-08-25 03:00:00 22.3 5 Nordeste 6 Nordeste 0 -- -- 46
2020-08-25 02:00:00 22 0 Calma 9 Norte 0 -- -- 52
2020-08-25 01:00:00 22.7 3 Nordeste 10 Sudeste 0 -- -- 51
2020-08-25 00:00:00 24.3 0 Calma 13 Norte 0 -- -- 44
2020-08-24 23:00:00 25.6 0 Calma 9 Norte 0 -- -- 40
2020-08-24 22:00:00 26.7 4 Norte 11 Norte 0 -- -- 39
2020-08-24 21:00:00 29.7 6 Norte 10 Norte 0 -- -- 35
2020-08-24 20:00:00 36.5 3 Sudoeste 15 Sudoeste 0 -- -- 24
2020-08-24 19:00:00 37.9 5 Oeste 17 Sudoeste 0 -- -- 22
2020-08-24 18:00:00 37.1 9 Sudoeste 18 Sudoeste 0 -- -- 22
2020-08-24 17:00:00 37.3 7 Sur 19 Sudoeste 0 -- -- 22
2020-08-24 16:00:00 36.9 5 Nordeste 18 Sur 0 -- -- 24
2020-08-24 15:00:00 36.4 8 Sudoeste 19 Sur 0 -- -- 29
2020-08-24 14:00:00 34.5 9 Este 23 Sudeste 0 -- -- 28
2020-08-24 13:00:00 33.1 5 Este 15 Sudeste 0 -- -- 30
2020-08-24 12:00:00 32.1 6 Sur 12 Sudeste 0 -- -- 25
2020-08-24 11:00:00 29.9 5 Sudoeste 11 Sudoeste 0 -- -- 26
2020-08-24 10:00:00 28 4 Sur 6 Sur 0 -- -- 30
2020-08-24 09:00:00 24.1 4 Oeste 6 Oeste 0 -- -- 40
2020-08-24 08:00:00 18.1 2 Noroeste 9 Nordeste 0 -- -- 46
2020-08-24 07:00:00 16.8 6 Este 9 Este 0 -- -- 55
2020-08-24 06:00:00 18.4 4 Nordeste 12 Este 0 -- -- 51
2020-08-24 05:00:00 21.9 6 Noroeste 15 Norte 0 -- -- 37
2020-08-24 04:00:00 19.3 3 Norte 7 Nordeste 0 -- -- 47
2020-08-24 03:00:00 22.8 5 Oeste 14 Oeste 0 -- -- 36
2020-08-24 02:00:00 21.8 3 Oeste 6 Oeste 0 -- -- 41
2020-08-24 01:00:00 23 2 Este 6 Este 0 -- -- 39
2020-08-24 00:00:00 25.5 3 Sur 10 Noroeste 0 -- -- 29
2020-08-23 23:00:00 27.2 5 Noroeste 10 Oeste 0 -- -- 27
2020-08-23 22:00:00 27.5 5 Noroeste 13 Noroeste 0 -- -- 29
2020-08-23 21:00:00 30.3 5 Noroeste 13 Oeste 0 -- -- 28
2020-08-23 20:00:00 34.9 9 Oeste 15 Oeste 0 -- -- 21
2020-08-23 19:00:00 36.8 9 Sudoeste 13 Sudoeste 0 -- -- 19
2020-08-23 18:00:00 37.3 4 Este 17 Nordeste 0 -- -- 18
2020-08-23 17:00:00 36 6 Noroeste 17 Sudoeste 0 -- -- 19
2020-08-23 16:00:00 36.3 8 Sudeste 20 Sudeste 0 -- -- 18
2020-08-23 15:00:00 34.5 9 Este 17 Sur 0 -- -- 22
2020-08-23 14:00:00 33.4 9 Este 15 Este 0 -- -- 21
2020-08-23 13:00:00 31.6 8 Nordeste 13 Nordeste 0 -- -- 23
2020-08-23 12:00:00 31.9 5 Sur 12 Sudeste 0 -- -- 23
2020-08-23 11:00:00 29.2 7 Sudoeste 12 Sur 0 -- -- 26
2020-08-23 10:00:00 26.4 7 Oeste 10 Oeste 0 -- -- 32
2020-08-23 09:00:00 21.2 3 Sudeste 6 Nordeste 0 -- -- 46
2020-08-23 08:00:00 15.8 4 Nordeste 9 Noroeste 0 -- -- 58
2020-08-23 07:00:00 18.5 5 Oeste 11 Noroeste 0 -- -- 45
2020-08-23 06:00:00 16.8 2 Nordeste 15 Este 0 -- -- 54
2020-08-23 05:00:00 18 4 Norte 8 Nordeste 0 -- -- 49
2020-08-23 04:00:00 17.5 3 Nordeste 7 Oeste 0 -- -- 54
2020-08-23 03:00:00 20.8 5 Noroeste 6 Noroeste 0 -- -- 42
2020-08-23 02:00:00 21.6 0 Calma 5 Nordeste 0 -- -- 41
2020-08-23 01:00:00 21 4 Este 7 Este 0 -- -- 43
2020-08-23 00:00:00 22 2 Nordeste 13 Este 0 -- -- 39
2020-08-22 23:00:00 24.9 3 Norte 10 Norte 0 -- -- 32
2020-08-22 22:00:00 24.6 0 Calma 12 Norte 0 -- -- 33
2020-08-22 21:00:00 28.4 3 Noroeste 11 Sudoeste 0 -- -- 30
2020-08-22 20:00:00 34.3 8 Sudoeste 19 Sudoeste 0 -- -- 20
2020-08-22 19:00:00 35.1 10 Sudoeste 18 Sur 0 -- -- 22
2020-08-22 18:00:00 34.8 10 Sudoeste 21 Sur 0 -- -- 27
2020-08-22 17:00:00 34 10 Oeste 21 Sur 0 -- -- 27
2020-08-22 16:00:00 34 7 Sudoeste 21 Sudoeste 0 -- -- 27
2020-08-22 15:00:00 32.9 6 Sur 19 Sudoeste 0 -- -- 29
2020-08-22 14:00:00 30.8 10 Oeste 20 Sudoeste 0 -- -- 35
2020-08-22 13:00:00 29.1 8 Sudoeste 15 Sur 0 -- -- 39
2020-08-22 12:00:00 28.6 6 Sur 12 Sudoeste 0 -- -- 42
2020-08-22 11:00:00 27.1 4 Este 9 Este 0 -- -- 46
2020-08-22 10:00:00 24.2 4 Este 7 Nordeste 0 -- -- 52
2020-08-22 09:00:00 21.3 0 Calma 5 Oeste 0 -- -- 65
2020-08-22 08:00:00 15.4 3 Oeste 4 Oeste 0 -- -- 83
2020-08-22 07:00:00 14.9 2 Este 4 Este 0 -- -- 85
2020-08-22 06:00:00 15.9 0 Calma 6 Norte 0 -- -- 81
2020-08-22 05:00:00 16 3 Nordeste 5 Norte 0 -- -- 83
2020-08-22 04:00:00 18 0 Calma 7 Nordeste 0 -- -- 76
2020-08-22 03:00:00 17.7 4 Este 8 Este 0 -- -- 78
2020-08-22 02:00:00 18.9 5 Nordeste 6 Nordeste 0 -- -- 72
2020-08-22 01:00:00 20.4 2 Sur 10 Sudoeste 0 -- -- 68
2020-08-22 00:00:00 21 4 Este 9 Noroeste 0 -- -- 63